Flight Track Log - Related Links

Times and Time Zones

All times are in EDT time to prevent confusion due to time zone crossing. See the JBU1329 flight status page for this flight to view local times or setup timezone preferences in your user account.

Time Position Orientation Groundspeed Altitude Reporting Facility
EDT Latitude Longitude Course Direction KTS MPH feet Rate Location/Type
Thu 11:16:09 AM 42.3500 -71.0167 262° West 164 189 800  Level KA90
Thu 11:18:00 AM 42.3662 -70.7299 172° South  Level FlightAware Approximate
Thu 11:18:27 AM 42.3228 -70.8703 104° East 235 270 5,700  Level Boston Center
Thu 11:19:00 AM 42.2759 -70.7528 228° Southwest  Level FlightAware Approximate
Thu 11:19:27 AM 42.3211 -70.7553 91° East 248 285 8,500  Level Boston Center
Thu 11:20:00 AM 42.2137 -70.8626 240° Southwest  Level FlightAware Approximate
Thu 11:20:27 AM 42.2436 -70.7236 163° South 226 260 11,200  Level Boston Center
Thu 11:21:00 AM 42.1810 -70.9903 262° West  Level FlightAware Approximate
Thu 11:21:27 AM 42.1781 -70.7928 218° Southwest 213 245 13,300  Level Boston Center
Thu 11:22:27 AM 42.1689 -70.8856 262° West 222 255 15,600 2,100 Climbing Boston Center
Thu 11:23:27 AM 42.1556 -70.9950 261° West 300 345 17,500 2,350 Climbing Boston Center
Thu 11:24:27 AM 42.1389 -71.1633 262° West 338 389 20,300 2,400 Climbing Boston Center
Thu 11:25:27 AM 42.1236 -71.2897 261° West 349 402 22,300 1,850 Climbing Boston Center
Thu 11:26:27 AM 42.1083 -71.4214 261° West 362 417 24,000 1,700 Climbing Boston Center
Thu 11:27:27 AM 42.0886 -71.5561 259° West 362 417 25,700 1,850 Climbing Boston Center
Thu 11:28:27 AM 42.0728 -71.6794 260° West 368 423 27,700 1,750 Climbing Boston Center
Thu 11:29:27 AM 42.0528 -71.8194 259° West 373 429 29,200 1,250 Climbing Boston Center
Thu 11:30:27 AM 42.0367 -71.9567 261° West 368 423 30,200 950 Climbing Boston Center
Thu 11:31:27 AM 42.0164 -72.0936 259° West 373 429 31,100 900 Climbing Boston Center
Thu 11:32:27 AM 41.9981 -72.2361 260° West 379 436 32,000 450 Climbing Boston Center
Thu 11:33:27 AM 41.9522 -72.3394 239° Southwest 379 436 32,000  Level Boston Center
Thu 11:34:27 AM 41.8753 -72.4792 234° Southwest 384 442 32,000  Level Boston Center
Thu 11:35:27 AM 41.8106 -72.6017 235° Southwest 397 457 32,000  Level Boston Center
Thu 11:36:27 AM 41.7456 -72.7211 234° Southwest 402 463 32,000  Level Boston Center
Thu 11:37:27 AM 41.6806 -72.8431 235° Southwest 402 463 32,000  Level Boston Center
Thu 11:38:27 AM 41.6178 -72.9622 235° Southwest 402 463 32,000  Level Boston Center
Thu 11:40:19 AM 41.4994 -73.1811 234° Southwest 400 460 32,000  Level New York Center
Thu 11:41:18 AM 41.4344 -73.3061 235° Southwest 411 473 32,000  Level New York Center
Thu 11:42:18 AM 41.3692 -73.4250 234° Southwest 416 479 32,000  Level New York Center
Thu 11:43:18 AM 41.3039 -73.5469 235° Southwest 416 479 32,000  Level New York Center
Thu 11:44:18 AM 41.2322 -73.6708 232° Southwest 422 486 32,000  Level New York Center
Thu 11:45:19 AM 41.1628 -73.7861 231° Southwest 416 479 32,000  Level New York Center
Thu 11:46:19 AM 41.0931 -73.9014 231° Southwest 411 473 32,000  Level New York Center
Thu 11:47:18 AM 41.0253 -74.0167 232° Southwest 406 467 32,000 -712 Level New York Center
Thu 11:48:17 AM 40.9575 -74.1369 233° Southwest 406 467 30,600 -1,866 Descending New York Center
Thu 11:49:17 AM 40.8811 -74.2539 229° Southwest 412 474 28,300 -2,182 Descending New York Center
Thu 11:50:18 AM 40.8111 -74.3683 231° Southwest 412 474 26,200 -1,131 Descending New York Center
Thu 11:51:19 AM 40.7633 -74.4917 243° Southwest 402 463 26,000 -101 Descending New York Center
Thu 11:52:17 AM 40.7239 -74.6183 248° West 386 444 26,000  Level New York Center
Thu 11:53:17 AM 40.6864 -74.7475 249° West 381 438 26,000  Level New York Center
Thu 11:54:18 AM 40.6486 -74.8767 249° West 381 438 26,000  Level New York Center
Thu 11:55:19 AM 40.6086 -75.0053 248° West 386 444 26,000  Level New York Center
Thu 11:56:17 AM 40.5461 -75.1189 234° Southwest 381 438 26,000 -605 Level New York Center
Thu 11:57:18 AM 40.4717 -75.2153 225° Southwest 386 444 24,800 -1,686 Descending New York Center
Thu 11:58:18 AM 40.3950 -75.3139 224° Southwest 386 444 22,600 -2,350 Descending New York Center
Thu 11:59:18 AM 40.3247 -75.4017 224° Southwest 373 429 20,100 -1,800 Descending New York Center
Thu 12:00:18 PM 40.2486 -75.4839 220° Southwest 361 415 19,000 -550 Descending New York Center
Thu 12:01:18 PM 40.1808 -75.5633 222° Southwest 356 410 19,000  Level New York Center
Thu 12:02:19 PM 40.0978 -75.6553 220° Southwest 356 410 19,000  Level New York Center
Thu 12:03:19 PM 40.0300 -75.7292 220° Southwest 356 410 19,000 -254 Level New York Center
Thu 12:04:17 PM 39.9489 -75.8236 222° Southwest 356 410 18,500 -1,397 Descending New York Center
Thu 12:06:28 PM 39.8000 -76.0000 222° Southwest 326 375 14,600 -1,797 Descending Potomac TRACON
Thu 12:07:34 PM 39.7167 -76.0833 218° Southwest 311 358 12,600 -1,450 Descending Potomac TRACON
Thu 12:08:28 PM 39.6667 -76.1500 226° Southwest 305 351 11,700 -1,211 Descending Potomac TRACON
Thu 12:09:28 PM 39.6000 -76.2167 218° Southwest 289 333 10,300 -1,250 Descending Potomac TRACON
Thu 12:10:28 PM 39.5500 -76.2833 226° Southwest 255 293 9,200 -800 Descending Potomac TRACON
Thu 12:11:28 PM 39.5333 -76.3500 252° West 212 244 8,700 -857 Descending Potomac TRACON
Thu 12:12:34 PM 39.4833 -76.4000 218° Southwest 209 241 7,400 -1,134 Descending Potomac TRACON
Thu 12:13:35 PM 39.4333 -76.4333 207° Southwest 207 238 6,300 -1,148 Descending Potomac TRACON
Thu 12:14:29 PM 39.3833 -76.4333 180° South 236 272 5,200 -1,211 Descending Potomac TRACON
Thu 12:15:29 PM 39.3167 -76.4000 159° South 241 277 4,000 -600 Descending Potomac TRACON
Thu 12:16:29 PM 39.2500 -76.3667 159° South 241 277 4,000  Level Potomac TRACON
Thu 12:17:29 PM 39.1833 -76.3333 159° South 238 274 4,000  Level Potomac TRACON
Thu 12:18:35 PM 39.1167 -76.3333 180° South 220 253 4,000  Level Potomac TRACON
Thu 12:19:29 PM 39.0667 -76.3500 195° South 216 249 4,000  Level Potomac TRACON
Thu 12:20:29 PM 39.0167 -76.3833 207° Southwest 199 229 4,000 -263 Level Potomac TRACON
Thu 12:21:23 PM 38.9833 -76.4333 229° Southwest 177 204 3,500 -526 Descending Potomac TRACON
Thu 12:22:23 PM 39.0000 -76.4833 293° West 170 196 3,000 -250 Descending Potomac TRACON
Thu 12:23:23 PM 39.0333 -76.5333 311° West 175 201 3,000 -316 Level Potomac TRACON
Thu 12:24:17 PM 39.0667 -76.5667 322° Northwest 179 206 2,400 -789 Descending Potomac TRACON
Thu 12:25:17 PM 39.1000 -76.6000 322° Northwest 176 203 1,500 -789 Descending Potomac TRACON
Thu 12:26:11 PM 39.1333 -76.6333 322° Northwest 145 167 900 -667 Descending Potomac TRACON
Thu 12:28:00 PM 39.1667 -76.6667 270° West  Level FlightAware Approximate
Thu 12:35:00 PM 39.1754 -76.6683 270° West  Level Estimated

Login

Don't have an account? Register now (free) for customized features, flight alerts, and more!